sensor_id;sensor_type;location;lat;lon;timestamp;P1;durP1;ratioP1;P2;durP2;ratioP2
21110;SDS011;10713;51.912;4.494;2023-09-07T00:01:05;12.10;;;6.80;;
21110;SDS011;10713;51.912;4.494;2023-09-07T00:03:33;14.48;;;7.18;;
21110;SDS011;10713;51.912;4.494;2023-09-07T00:05:58;11.18;;;6.97;;
21110;SDS011;10713;51.912;4.494;2023-09-07T00:08:23;13.82;;;7.75;;
21110;SDS011;10713;51.912;4.494;2023-09-07T00:10:50;18.42;;;7.40;;
21110;SDS011;10713;51.912;4.494;2023-09-07T00:13:16;12.05;;;7.07;;
21110;SDS011;10713;51.912;4.494;2023-09-07T00:15:42;15.60;;;7.50;;
21110;SDS011;10713;51.912;4.494;2023-09-07T00:18:07;10.32;;;6.65;;
21110;SDS011;10713;51.912;4.494;2023-09-07T00:20:33;13.52;;;7.45;;
21110;SDS011;10713;51.912;4.494;2023-09-07T00:22:59;11.90;;;7.30;;
21110;SDS011;10713;51.912;4.494;2023-09-07T00:25:25;14.32;;;7.00;;
21110;SDS011;10713;51.912;4.494;2023-09-07T00:27:51;12.93;;;7.80;;
21110;SDS011;10713;51.912;4.494;2023-09-07T00:30:16;13.00;;;7.25;;
21110;SDS011;10713;51.912;4.494;2023-09-07T00:32:42;11.98;;;6.63;;
21110;SDS011;10713;51.912;4.494;2023-09-07T00:35:08;12.32;;;7.13;;
21110;SDS011;10713;51.912;4.494;2023-09-07T00:37:34;10.73;;;7.07;;
21110;SDS011;10713;51.912;4.494;2023-09-07T00:39:59;14.57;;;7.32;;
21110;SDS011;10713;51.912;4.494;2023-09-07T00:42:25;15.60;;;7.07;;
21110;SDS011;10713;51.912;4.494;2023-09-07T00:44:50;14.77;;;7.45;;
21110;SDS011;10713;51.912;4.494;2023-09-07T00:47:16;12.50;;;7.55;;
21110;SDS011;10713;51.912;4.494;2023-09-07T00:49:41;14.43;;;8.18;;
21110;SDS011;10713;51.912;4.494;2023-09-07T00:52:07;13.93;;;7.88;;
21110;SDS011;10713;51.912;4.494;2023-09-07T00:54:34;14.50;;;7.97;;
21110;SDS011;10713;51.912;4.494;2023-09-07T00:57:01;13.52;;;8.02;;
21110;SDS011;10713;51.912;4.494;2023-09-07T00:59:27;17.70;;;7.75;;
21110;SDS011;10713;51.912;4.494;2023-09-07T01:01:52;14.60;;;8.85;;
21110;SDS011;10713;51.912;4.494;2023-09-07T01:04:18;22.55;;;8.90;;
21110;SDS011;10713;51.912;4.494;2023-09-07T01:06:55;15.95;;;8.43;;
21110;SDS011;10713;51.912;4.494;2023-09-07T01:09:26;15.40;;;9.27;;
21110;SDS011;10713;51.912;4.494;2023-09-07T01:11:55;19.77;;;9.15;;
21110;SDS011;10713;51.912;4.494;2023-09-07T01:14:20;26.63;;;8.32;;
21110;SDS011;10713;51.912;4.494;2023-09-07T01:16:47;15.52;;;8.70;;
21110;SDS011;10713;51.912;4.494;2023-09-07T01:19:14;16.80;;;9.25;;
21110;SDS011;10713;51.912;4.494;2023-09-07T01:21:39;15.00;;;9.02;;
21110;SDS011;10713;51.912;4.494;2023-09-07T01:24:08;19.58;;;8.77;;
21110;SDS011;10713;51.912;4.494;2023-09-07T01:26:34;16.73;;;8.38;;
21110;SDS011;10713;51.912;4.494;2023-09-07T01:29:03;13.65;;;8.65;;
21110;SDS011;10713;51.912;4.494;2023-09-07T01:31:29;14.23;;;8.43;;
21110;SDS011;10713;51.912;4.494;2023-09-07T01:33:55;16.38;;;8.93;;
21110;SDS011;10713;51.912;4.494;2023-09-07T01:36:20;17.55;;;9.35;;
21110;SDS011;10713;51.912;4.494;2023-09-07T01:38:45;16.92;;;9.05;;
21110;SDS011;10713;51.912;4.494;2023-09-07T01:41:11;16.63;;;9.43;;
21110;SDS011;10713;51.912;4.494;2023-09-07T01:43:37;16.38;;;8.82;;
21110;SDS011;10713;51.912;4.494;2023-09-07T01:46:02;16.52;;;9.73;;
21110;SDS011;10713;51.912;4.494;2023-09-07T01:48:28;16.25;;;8.77;;
21110;SDS011;10713;51.912;4.494;2023-09-07T01:50:53;17.50;;;9.32;;
21110;SDS011;10713;51.912;4.494;2023-09-07T01:53:19;17.33;;;9.45;;
21110;SDS011;10713;51.912;4.494;2023-09-07T01:55:45;17.75;;;9.43;;
21110;SDS011;10713;51.912;4.494;2023-09-07T01:58:10;16.35;;;8.82;;
21110;SDS011;10713;51.912;4.494;2023-09-07T02:00:36;14.48;;;8.85;;
21110;SDS011;10713;51.912;4.494;2023-09-07T02:03:05;16.17;;;9.25;;
21110;SDS011;10713;51.912;4.494;2023-09-07T02:05:30;16.88;;;9.52;;
21110;SDS011;10713;51.912;4.494;2023-09-07T02:07:57;19.40;;;10.18;;
21110;SDS011;10713;51.912;4.494;2023-09-07T02:10:23;19.50;;;9.65;;
21110;SDS011;10713;51.912;4.494;2023-09-07T02:12:48;24.17;;;10.38;;
21110;SDS011;10713;51.912;4.494;2023-09-07T02:15:14;18.92;;;10.23;;
21110;SDS011;10713;51.912;4.494;2023-09-07T02:17:39;17.25;;;9.90;;
21110;SDS011;10713;51.912;4.494;2023-09-07T02:20:05;20.08;;;9.27;;
21110;SDS011;10713;51.912;4.494;2023-09-07T02:22:35;18.33;;;9.93;;
21110;SDS011;10713;51.912;4.494;2023-09-07T02:25:02;17.95;;;10.55;;
21110;SDS011;10713;51.912;4.494;2023-09-07T02:27:30;22.05;;;10.23;;
21110;SDS011;10713;51.912;4.494;2023-09-07T02:29:56;19.10;;;10.70;;
21110;SDS011;10713;51.912;4.494;2023-09-07T02:32:21;18.02;;;10.65;;
21110;SDS011;10713;51.912;4.494;2023-09-07T02:34:46;19.42;;;10.20;;
21110;SDS011;10713;51.912;4.494;2023-09-07T02:37:13;21.17;;;10.85;;
21110;SDS011;10713;51.912;4.494;2023-09-07T02:39:39;19.40;;;10.35;;
21110;SDS011;10713;51.912;4.494;2023-09-07T02:42:05;20.00;;;11.38;;
21110;SDS011;10713;51.912;4.494;2023-09-07T02:44:31;20.27;;;10.73;;
21110;SDS011;10713;51.912;4.494;2023-09-07T02:46:56;21.52;;;10.95;;
21110;SDS011;10713;51.912;4.494;2023-09-07T02:49:21;20.27;;;10.65;;
21110;SDS011;10713;51.912;4.494;2023-09-07T02:51:47;18.50;;;10.63;;
21110;SDS011;10713;51.912;4.494;2023-09-07T02:54:12;21.48;;;11.02;;
21110;SDS011;10713;51.912;4.494;2023-09-07T02:56:37;22.98;;;11.07;;
21110;SDS011;10713;51.912;4.494;2023-09-07T02:59:03;20.05;;;11.15;;
21110;SDS011;10713;51.912;4.494;2023-09-07T03:01:28;18.42;;;10.95;;
21110;SDS011;10713;51.912;4.494;2023-09-07T03:03:54;22.40;;;11.18;;
21110;SDS011;10713;51.912;4.494;2023-09-07T03:06:19;22.45;;;11.82;;
21110;SDS011;10713;51.912;4.494;2023-09-07T03:08:45;19.40;;;11.13;;
21110;SDS011;10713;51.912;4.494;2023-09-07T03:11:10;20.88;;;10.77;;
21110;SDS011;10713;51.912;4.494;2023-09-07T03:13:36;19.60;;;11.20;;
21110;SDS011;10713;51.912;4.494;2023-09-07T03:16:03;20.40;;;11.95;;
21110;SDS011;10713;51.912;4.494;2023-09-07T03:18:29;20.92;;;11.95;;
21110;SDS011;10713;51.912;4.494;2023-09-07T03:20:55;21.42;;;12.07;;
21110;SDS011;10713;51.912;4.494;2023-09-07T03:23:23;22.30;;;11.80;;
21110;SDS011;10713;51.912;4.494;2023-09-07T03:25:48;24.23;;;12.05;;
21110;SDS011;10713;51.912;4.494;2023-09-07T03:28:14;20.05;;;11.77;;
21110;SDS011;10713;51.912;4.494;2023-09-07T03:30:39;23.17;;;12.13;;
21110;SDS011;10713;51.912;4.494;2023-09-07T03:33:05;20.90;;;11.68;;
21110;SDS011;10713;51.912;4.494;2023-09-07T03:35:31;20.33;;;12.05;;
21110;SDS011;10713;51.912;4.494;2023-09-07T03:37:57;23.35;;;12.63;;
21110;SDS011;10713;51.912;4.494;2023-09-07T03:40:22;20.63;;;11.95;;
21110;SDS011;10713;51.912;4.494;2023-09-07T03:42:48;21.75;;;11.05;;
21110;SDS011;10713;51.912;4.494;2023-09-07T03:45:13;23.42;;;12.85;;
21110;SDS011;10713;51.912;4.494;2023-09-07T03:47:38;23.48;;;12.57;;
21110;SDS011;10713;51.912;4.494;2023-09-07T03:50:04;21.42;;;12.07;;
21110;SDS011;10713;51.912;4.494;2023-09-07T03:52:30;23.42;;;12.90;;
21110;SDS011;10713;51.912;4.494;2023-09-07T03:54:56;23.58;;;13.07;;
21110;SDS011;10713;51.912;4.494;2023-09-07T03:57:23;23.33;;;12.25;;
21110;SDS011;10713;51.912;4.494;2023-09-07T03:59:50;22.17;;;12.18;;
21110;SDS011;10713;51.912;4.494;2023-09-07T04:02:15;23.13;;;12.50;;
21110;SDS011;10713;51.912;4.494;2023-09-07T04:04:48;21.27;;;12.32;;
21110;SDS011;10713;51.912;4.494;2023-09-07T04:07:14;22.45;;;12.45;;
21110;SDS011;10713;51.912;4.494;2023-09-07T04:09:40;25.95;;;13.00;;
21110;SDS011;10713;51.912;4.494;2023-09-07T04:12:05;24.65;;;13.55;;
21110;SDS011;10713;51.912;4.494;2023-09-07T04:14:32;25.38;;;12.88;;
21110;SDS011;10713;51.912;4.494;2023-09-07T04:16:57;26.77;;;12.25;;
21110;SDS011;10713;51.912;4.494;2023-09-07T04:19:23;22.95;;;12.68;;
21110;SDS011;10713;51.912;4.494;2023-09-07T04:21:48;24.35;;;12.73;;
21110;SDS011;10713;51.912;4.494;2023-09-07T04:24:14;25.15;;;12.00;;
21110;SDS011;10713;51.912;4.494;2023-09-07T04:26:39;24.10;;;12.00;;
21110;SDS011;10713;51.912;4.494;2023-09-07T04:29:06;23.67;;;11.25;;
21110;SDS011;10713;51.912;4.494;2023-09-07T04:31:32;24.75;;;12.65;;
21110;SDS011;10713;51.912;4.494;2023-09-07T04:33:57;26.38;;;12.85;;
21110;SDS011;10713;51.912;4.494;2023-09-07T04:36:22;17.88;;;10.63;;
21110;SDS011;10713;51.912;4.494;2023-09-07T04:38:48;23.90;;;11.63;;
21110;SDS011;10713;51.912;4.494;2023-09-07T04:41:13;21.80;;;12.43;;
21110;SDS011;10713;51.912;4.494;2023-09-07T04:43:39;27.83;;;12.27;;
21110;SDS011;10713;51.912;4.494;2023-09-07T04:46:05;23.75;;;12.45;;
21110;SDS011;10713;51.912;4.494;2023-09-07T04:48:32;22.40;;;11.90;;
21110;SDS011;10713;51.912;4.494;2023-09-07T04:50:59;20.30;;;11.38;;
21110;SDS011;10713;51.912;4.494;2023-09-07T04:53:28;22.40;;;12.02;;
21110;SDS011;10713;51.912;4.494;2023-09-07T04:55:55;26.17;;;11.95;;
21110;SDS011;10713;51.912;4.494;2023-09-07T04:58:21;25.25;;;12.88;;
21110;SDS011;10713;51.912;4.494;2023-09-07T05:00:46;25.83;;;12.27;;
21110;SDS011;10713;51.912;4.494;2023-09-07T05:03:11;24.67;;;12.63;;
21110;SDS011;10713;51.912;4.494;2023-09-07T05:05:38;27.55;;;12.93;;
21110;SDS011;10713;51.912;4.494;2023-09-07T05:08:03;26.75;;;12.73;;
21110;SDS011;10713;51.912;4.494;2023-09-07T05:10:32;26.25;;;12.75;;
21110;SDS011;10713;51.912;4.494;2023-09-07T05:12:58;25.85;;;12.95;;
21110;SDS011;10713;51.912;4.494;2023-09-07T05:15:24;23.77;;;12.20;;
21110;SDS011;10713;51.912;4.494;2023-09-07T05:17:49;24.42;;;12.27;;
21110;SDS011;10713;51.912;4.494;2023-09-07T05:20:14;28.45;;;12.55;;
21110;SDS011;10713;51.912;4.494;2023-09-07T05:22:40;21.90;;;11.73;;
21110;SDS011;10713;51.912;4.494;2023-09-07T05:25:06;22.67;;;12.18;;
21110;SDS011;10713;51.912;4.494;2023-09-07T05:27:33;20.42;;;11.95;;
21110;SDS011;10713;51.912;4.494;2023-09-07T05:30:02;24.60;;;12.00;;
21110;SDS011;10713;51.912;4.494;2023-09-07T05:32:28;21.52;;;11.63;;
21110;SDS011;10713;51.912;4.494;2023-09-07T05:34:53;20.83;;;11.55;;
21110;SDS011;10713;51.912;4.494;2023-09-07T05:37:18;16.58;;;10.95;;
21110;SDS011;10713;51.912;4.494;2023-09-07T05:39:44;19.02;;;10.60;;
21110;SDS011;10713;51.912;4.494;2023-09-07T05:42:09;17.42;;;10.35;;
21110;SDS011;10713;51.912;4.494;2023-09-07T05:44:35;21.40;;;10.75;;
21110;SDS011;10713;51.912;4.494;2023-09-07T05:47:00;26.52;;;10.52;;
21110;SDS011;10713;51.912;4.494;2023-09-07T05:49:27;18.23;;;10.93;;
21110;SDS011;10713;51.912;4.494;2023-09-07T05:51:53;16.88;;;9.60;;
21110;SDS011;10713;51.912;4.494;2023-09-07T05:54:18;17.40;;;10.10;;
21110;SDS011;10713;51.912;4.494;2023-09-07T05:56:44;16.73;;;10.32;;
21110;SDS011;10713;51.912;4.494;2023-09-07T05:59:09;17.08;;;11.13;;
21110;SDS011;10713;51.912;4.494;2023-09-07T06:01:34;15.90;;;9.90;;
21110;SDS011;10713;51.912;4.494;2023-09-07T06:04:01;16.70;;;9.40;;
21110;SDS011;10713;51.912;4.494;2023-09-07T06:06:27;20.95;;;10.98;;
21110;SDS011;10713;51.912;4.494;2023-09-07T06:08:52;16.35;;;10.77;;
21110;SDS011;10713;51.912;4.494;2023-09-07T06:11:17;16.90;;;10.75;;
21110;SDS011;10713;51.912;4.494;2023-09-07T06:13:43;15.32;;;9.98;;
21110;SDS011;10713;51.912;4.494;2023-09-07T06:16:08;15.93;;;10.30;;
21110;SDS011;10713;51.912;4.494;2023-09-07T06:18:34;18.05;;;11.20;;
21110;SDS011;10713;51.912;4.494;2023-09-07T06:20:59;17.27;;;10.23;;
21110;SDS011;10713;51.912;4.494;2023-09-07T06:23:24;19.57;;;9.63;;
21110;SDS011;10713;51.912;4.494;2023-09-07T06:25:50;16.45;;;10.15;;
21110;SDS011;10713;51.912;4.494;2023-09-07T06:28:15;17.95;;;10.70;;
21110;SDS011;10713;51.912;4.494;2023-09-07T06:30:40;15.77;;;10.50;;
21110;SDS011;10713;51.912;4.494;2023-09-07T06:33:06;16.00;;;10.32;;
21110;SDS011;10713;51.912;4.494;2023-09-07T06:35:31;17.17;;;10.23;;
21110;SDS011;10713;51.912;4.494;2023-09-07T06:37:56;20.50;;;10.52;;
21110;SDS011;10713;51.912;4.494;2023-09-07T06:40:22;15.17;;;10.43;;
21110;SDS011;10713;51.912;4.494;2023-09-07T06:42:47;17.83;;;11.02;;
21110;SDS011;10713;51.912;4.494;2023-09-07T06:45:13;19.95;;;10.75;;
21110;SDS011;10713;51.912;4.494;2023-09-07T06:47:38;17.13;;;9.98;;
21110;SDS011;10713;51.912;4.494;2023-09-07T06:50:04;13.98;;;9.40;;
21110;SDS011;10713;51.912;4.494;2023-09-07T06:52:30;16.88;;;10.20;;
21110;SDS011;10713;51.912;4.494;2023-09-07T06:54:55;21.10;;;10.30;;
21110;SDS011;10713;51.912;4.494;2023-09-07T06:57:21;12.85;;;8.95;;
21110;SDS011;10713;51.912;4.494;2023-09-07T06:59:46;12.50;;;8.82;;
21110;SDS011;10713;51.912;4.494;2023-09-07T07:02:12;16.02;;;10.20;;
21110;SDS011;10713;51.912;4.494;2023-09-07T07:04:38;15.77;;;9.80;;
21110;SDS011;10713;51.912;4.494;2023-09-07T07:07:03;15.73;;;9.65;;
21110;SDS011;10713;51.912;4.494;2023-09-07T07:09:32;17.95;;;10.50;;
21110;SDS011;10713;51.912;4.494;2023-09-07T07:12:02;14.32;;;9.57;;
21110;SDS011;10713;51.912;4.494;2023-09-07T07:14:27;17.30;;;9.70;;
21110;SDS011;10713;51.912;4.494;2023-09-07T07:16:53;14.90;;;9.50;;
21110;SDS011;10713;51.912;4.494;2023-09-07T07:19:18;15.70;;;9.65;;
21110;SDS011;10713;51.912;4.494;2023-09-07T07:21:44;16.23;;;9.32;;
21110;SDS011;10713;51.912;4.494;2023-09-07T07:24:09;15.23;;;9.45;;
21110;SDS011;10713;51.912;4.494;2023-09-07T07:26:35;14.45;;;9.63;;
21110;SDS011;10713;51.912;4.494;2023-09-07T07:29:01;13.43;;;9.52;;
21110;SDS011;10713;51.912;4.494;2023-09-07T07:31:28;12.63;;;8.75;;
21110;SDS011;10713;51.912;4.494;2023-09-07T07:33:54;14.15;;;9.02;;
21110;SDS011;10713;51.912;4.494;2023-09-07T07:36:20;17.23;;;9.57;;
21110;SDS011;10713;51.912;4.494;2023-09-07T07:38:46;13.35;;;8.82;;
21110;SDS011;10713;51.912;4.494;2023-09-07T07:41:11;18.95;;;9.63;;
21110;SDS011;10713;51.912;4.494;2023-09-07T07:43:36;15.05;;;9.15;;
21110;SDS011;10713;51.912;4.494;2023-09-07T07:46:02;13.88;;;8.60;;
21110;SDS011;10713;51.912;4.494;2023-09-07T07:48:27;16.23;;;9.30;;
21110;SDS011;10713;51.912;4.494;2023-09-07T07:50:54;14.13;;;8.38;;
21110;SDS011;10713;51.912;4.494;2023-09-07T07:53:20;14.93;;;8.75;;
21110;SDS011;10713;51.912;4.494;2023-09-07T07:55:45;12.95;;;8.25;;
21110;SDS011;10713;51.912;4.494;2023-09-07T07:58:11;13.88;;;8.85;;
21110;SDS011;10713;51.912;4.494;2023-09-07T08:00:37;13.80;;;8.75;;
21110;SDS011;10713;51.912;4.494;2023-09-07T08:03:03;18.50;;;9.85;;
21110;SDS011;10713;51.912;4.494;2023-09-07T08:05:31;13.95;;;8.20;;
21110;SDS011;10713;51.912;4.494;2023-09-07T08:07:56;16.17;;;9.90;;
21110;SDS011;10713;51.912;4.494;2023-09-07T08:10:22;16.92;;;9.23;;
21110;SDS011;10713;51.912;4.494;2023-09-07T08:12:47;13.05;;;8.60;;
21110;SDS011;10713;51.912;4.494;2023-09-07T08:15:13;14.10;;;9.05;;
21110;SDS011;10713;51.912;4.494;2023-09-07T08:17:39;14.38;;;8.55;;
21110;SDS011;10713;51.912;4.494;2023-09-07T08:20:05;15.32;;;8.82;;
21110;SDS011;10713;51.912;4.494;2023-09-07T08:22:33;15.32;;;9.48;;
21110;SDS011;10713;51.912;4.494;2023-09-07T08:25:01;14.50;;;8.90;;
21110;SDS011;10713;51.912;4.494;2023-09-07T08:27:26;18.00;;;8.85;;
21110;SDS011;10713;51.912;4.494;2023-09-07T08:29:52;12.45;;;8.68;;
21110;SDS011;10713;51.912;4.494;2023-09-07T08:32:18;14.82;;;9.25;;
21110;SDS011;10713;51.912;4.494;2023-09-07T08:34:44;11.88;;;8.20;;
21110;SDS011;10713;51.912;4.494;2023-09-07T08:37:09;14.57;;;8.65;;
21110;SDS011;10713;51.912;4.494;2023-09-07T08:39:35;12.65;;;8.52;;
21110;SDS011;10713;51.912;4.494;2023-09-07T08:42:01;11.70;;;8.23;;
21110;SDS011;10713;51.912;4.494;2023-09-07T08:44:27;14.88;;;8.82;;
21110;SDS011;10713;51.912;4.494;2023-09-07T08:46:53;13.77;;;8.35;;
21110;SDS011;10713;51.912;4.494;2023-09-07T08:49:20;14.05;;;8.55;;
21110;SDS011;10713;51.912;4.494;2023-09-07T08:51:45;14.27;;;8.15;;
21110;SDS011;10713;51.912;4.494;2023-09-07T08:54:11;12.80;;;8.40;;
21110;SDS011;10713;51.912;4.494;2023-09-07T08:56:37;15.48;;;8.25;;
21110;SDS011;10713;51.912;4.494;2023-09-07T08:59:03;14.25;;;8.07;;
21110;SDS011;10713;51.912;4.494;2023-09-07T09:01:29;15.48;;;8.30;;
21110;SDS011;10713;51.912;4.494;2023-09-07T09:03:57;15.43;;;8.23;;
21110;SDS011;10713;51.912;4.494;2023-09-07T09:06:23;14.85;;;8.35;;
21110;SDS011;10713;51.912;4.494;2023-09-07T09:08:50;17.08;;;8.32;;
21110;SDS011;10713;51.912;4.494;2023-09-07T09:11:19;12.02;;;7.95;;
21110;SDS011;10713;51.912;4.494;2023-09-07T09:13:45;12.68;;;7.93;;
21110;SDS011;10713;51.912;4.494;2023-09-07T09:16:12;14.77;;;7.82;;
21110;SDS011;10713;51.912;4.494;2023-09-07T09:18:46;14.40;;;8.18;;
21110;SDS011;10713;51.912;4.494;2023-09-07T09:21:14;10.63;;;7.80;;
21110;SDS011;10713;51.912;4.494;2023-09-07T09:23:39;13.65;;;8.02;;
21110;SDS011;10713;51.912;4.494;2023-09-07T09:26:05;14.00;;;8.20;;
21110;SDS011;10713;51.912;4.494;2023-09-07T09:28:31;13.27;;;7.45;;
21110;SDS011;10713;51.912;4.494;2023-09-07T09:31:01;12.73;;;7.75;;
21110;SDS011;10713;51.912;4.494;2023-09-07T09:33:30;13.45;;;8.02;;
21110;SDS011;10713;51.912;4.494;2023-09-07T09:35:56;17.52;;;7.65;;
21110;SDS011;10713;51.912;4.494;2023-09-07T09:38:22;16.90;;;7.82;;
21110;SDS011;10713;51.912;4.494;2023-09-07T09:40:48;11.02;;;7.30;;
21110;SDS011;10713;51.912;4.494;2023-09-07T09:43:14;14.98;;;7.82;;
21110;SDS011;10713;51.912;4.494;2023-09-07T09:45:40;13.48;;;7.25;;
21110;SDS011;10713;51.912;4.494;2023-09-07T09:48:06;12.90;;;7.70;;
21110;SDS011;10713;51.912;4.494;2023-09-07T09:50:32;14.95;;;7.90;;
21110;SDS011;10713;51.912;4.494;2023-09-07T09:53:07;12.85;;;8.02;;
21110;SDS011;10713;51.912;4.494;2023-09-07T09:55:36;13.68;;;7.40;;
21110;SDS011;10713;51.912;4.494;2023-09-07T09:58:01;10.85;;;7.25;;
21110;SDS011;10713;51.912;4.494;2023-09-07T10:00:27;13.45;;;7.80;;
21110;SDS011;10713;51.912;4.494;2023-09-07T10:03:10;15.15;;;7.75;;
21110;SDS011;10713;51.912;4.494;2023-09-07T10:05:44;13.77;;;8.00;;
21110;SDS011;10713;51.912;4.494;2023-09-07T10:08:13;13.40;;;7.57;;
21110;SDS011;10713;51.912;4.494;2023-09-07T10:10:42;14.50;;;7.13;;
21110;SDS011;10713;51.912;4.494;2023-09-07T10:13:09;12.65;;;7.72;;
21110;SDS011;10713;51.912;4.494;2023-09-07T10:15:34;12.68;;;7.30;;
21110;SDS011;10713;51.912;4.494;2023-09-07T10:21:15;16.42;;;8.38;;
21110;SDS011;10713;51.912;4.494;2023-09-07T10:23:19;14.82;;;7.45;;
21110;SDS011;10713;51.912;4.494;2023-09-07T10:25:48;13.00;;;7.60;;
21110;SDS011;10713;51.912;4.494;2023-09-07T10:28:18;13.95;;;7.00;;
21110;SDS011;10713;51.912;4.494;2023-09-07T10:31:00;10.05;;;6.43;;
21110;SDS011;10713;51.912;4.494;2023-09-07T10:33:28;10.75;;;6.90;;
21110;SDS011;10713;51.912;4.494;2023-09-07T10:35:58;9.50;;;6.65;;
21110;SDS011;10713;51.912;4.494;2023-09-07T10:38:23;14.45;;;6.20;;
21110;SDS011;10713;51.912;4.494;2023-09-07T10:40:54;12.57;;;6.22;;
21110;SDS011;10713;51.912;4.494;2023-09-07T10:43:22;10.00;;;6.32;;
21110;SDS011;10713;51.912;4.494;2023-09-07T10:45:49;12.20;;;6.40;;
21110;SDS011;10713;51.912;4.494;2023-09-07T10:48:15;9.27;;;5.47;;
21110;SDS011;10713;51.912;4.494;2023-09-07T10:50:42;10.57;;;5.68;;
21110;SDS011;10713;51.912;4.494;2023-09-07T10:53:09;9.32;;;5.55;;
21110;SDS011;10713;51.912;4.494;2023-09-07T10:55:37;11.50;;;6.45;;
21110;SDS011;10713;51.912;4.494;2023-09-07T10:58:08;14.35;;;6.07;;
21110;SDS011;10713;51.912;4.494;2023-09-07T11:00:34;10.85;;;5.88;;
21110;SDS011;10713;51.912;4.494;2023-09-07T11:03:05;10.93;;;5.72;;
21110;SDS011;10713;51.912;4.494;2023-09-07T11:05:32;8.80;;;5.40;;
21110;SDS011;10713;51.912;4.494;2023-09-07T11:08:01;9.98;;;6.15;;
21110;SDS011;10713;51.912;4.494;2023-09-07T11:10:26;11.88;;;6.13;;
21110;SDS011;10713;51.912;4.494;2023-09-07T11:12:52;8.00;;;5.38;;
21110;SDS011;10713;51.912;4.494;2023-09-07T11:15:18;9.57;;;5.67;;
21110;SDS011;10713;51.912;4.494;2023-09-07T11:17:44;9.07;;;5.53;;
21110;SDS011;10713;51.912;4.494;2023-09-07T11:20:09;9.55;;;5.97;;
21110;SDS011;10713;51.912;4.494;2023-09-07T11:22:35;11.43;;;6.60;;
21110;SDS011;10713;51.912;4.494;2023-09-07T11:25:04;9.65;;;5.72;;
21110;SDS011;10713;51.912;4.494;2023-09-07T11:27:31;8.98;;;5.35;;
21110;SDS011;10713;51.912;4.494;2023-09-07T11:29:56;9.93;;;5.78;;
21110;SDS011;10713;51.912;4.494;2023-09-07T11:32:22;6.72;;;4.82;;
21110;SDS011;10713;51.912;4.494;2023-09-07T11:34:49;10.60;;;5.47;;
21110;SDS011;10713;51.912;4.494;2023-09-07T11:37:16;6.97;;;4.65;;
21110;SDS011;10713;51.912;4.494;2023-09-07T11:39:47;5.97;;;4.55;;
21110;SDS011;10713;51.912;4.494;2023-09-07T11:42:13;8.60;;;5.03;;
21110;SDS011;10713;51.912;4.494;2023-09-07T11:44:38;8.52;;;5.45;;
21110;SDS011;10713;51.912;4.494;2023-09-07T11:47:04;7.45;;;5.05;;
21110;SDS011;10713;51.912;4.494;2023-09-07T11:49:29;9.05;;;5.40;;
21110;SDS011;10713;51.912;4.494;2023-09-07T11:51:56;7.22;;;5.40;;
21110;SDS011;10713;51.912;4.494;2023-09-07T11:54:22;7.25;;;4.40;;
21110;SDS011;10713;51.912;4.494;2023-09-07T11:56:48;7.95;;;4.68;;
21110;SDS011;10713;51.912;4.494;2023-09-07T11:59:13;7.55;;;5.10;;
21110;SDS011;10713;51.912;4.494;2023-09-07T12:01:38;7.43;;;4.38;;
21110;SDS011;10713;51.912;4.494;2023-09-07T12:04:05;7.28;;;4.82;;
21110;SDS011;10713;51.912;4.494;2023-09-07T12:06:31;8.85;;;5.03;;
21110;SDS011;10713;51.912;4.494;2023-09-07T12:09:00;7.20;;;4.75;;
21110;SDS011;10713;51.912;4.494;2023-09-07T12:11:27;10.48;;;4.70;;
21110;SDS011;10713;51.912;4.494;2023-09-07T12:13:52;8.88;;;4.72;;
21110;SDS011;10713;51.912;4.494;2023-09-07T12:16:18;7.75;;;4.70;;
21110;SDS011;10713;51.912;4.494;2023-09-07T12:18:43;5.50;;;3.92;;
21110;SDS011;10713;51.912;4.494;2023-09-07T12:21:08;7.22;;;4.90;;
21110;SDS011;10713;51.912;4.494;2023-09-07T12:23:34;6.23;;;4.20;;
21110;SDS011;10713;51.912;4.494;2023-09-07T12:26:00;6.30;;;4.20;;
21110;SDS011;10713;51.912;4.494;2023-09-07T12:28:26;6.63;;;4.47;;
21110;SDS011;10713;51.912;4.494;2023-09-07T12:30:51;14.13;;;4.03;;
21110;SDS011;10713;51.912;4.494;2023-09-07T12:33:17;6.25;;;4.18;;
21110;SDS011;10713;51.912;4.494;2023-09-07T12:35:42;12.85;;;4.50;;
21110;SDS011;10713;51.912;4.494;2023-09-07T12:38:07;7.28;;;4.45;;
21110;SDS011;10713;51.912;4.494;2023-09-07T12:40:35;6.10;;;4.68;;
21110;SDS011;10713;51.912;4.494;2023-09-07T12:43:01;6.55;;;4.55;;
21110;SDS011;10713;51.912;4.494;2023-09-07T12:45:27;7.00;;;4.40;;
21110;SDS011;10713;51.912;4.494;2023-09-07T12:47:52;6.05;;;3.78;;
21110;SDS011;10713;51.912;4.494;2023-09-07T12:50:19;6.28;;;4.50;;
21110;SDS011;10713;51.912;4.494;2023-09-07T12:52:44;9.00;;;4.32;;
21110;SDS011;10713;51.912;4.494;2023-09-07T12:55:09;7.95;;;4.32;;
21110;SDS011;10713;51.912;4.494;2023-09-07T12:57:35;5.82;;;4.03;;
21110;SDS011;10713;51.912;4.494;2023-09-07T13:00:01;6.65;;;4.15;;
21110;SDS011;10713;51.912;4.494;2023-09-07T13:02:28;6.35;;;4.20;;
21110;SDS011;10713;51.912;4.494;2023-09-07T13:04:54;10.85;;;4.22;;
21110;SDS011;10713;51.912;4.494;2023-09-07T13:07:20;10.60;;;4.05;;
21110;SDS011;10713;51.912;4.494;2023-09-07T13:09:46;6.45;;;4.25;;
21110;SDS011;10713;51.912;4.494;2023-09-07T13:12:11;8.57;;;4.28;;
21110;SDS011;10713;51.912;4.494;2023-09-07T13:14:37;6.68;;;3.88;;
21110;SDS011;10713;51.912;4.494;2023-09-07T13:17:02;8.13;;;3.88;;
21110;SDS011;10713;51.912;4.494;2023-09-07T13:19:28;6.45;;;4.15;;
21110;SDS011;10713;51.912;4.494;2023-09-07T13:21:54;7.40;;;3.65;;
21110;SDS011;10713;51.912;4.494;2023-09-07T13:24:19;5.50;;;3.70;;
21110;SDS011;10713;51.912;4.494;2023-09-07T13:26:47;5.77;;;3.57;;
21110;SDS011;10713;51.912;4.494;2023-09-07T13:29:12;6.47;;;3.80;;
21110;SDS011;10713;51.912;4.494;2023-09-07T13:31:38;5.13;;;3.38;;
21110;SDS011;10713;51.912;4.494;2023-09-07T13:34:03;7.13;;;3.83;;
21110;SDS011;10713;51.912;4.494;2023-09-07T13:36:29;5.05;;;3.13;;
21110;SDS011;10713;51.912;4.494;2023-09-07T13:38:55;5.50;;;3.58;;
21110;SDS011;10713;51.912;4.494;2023-09-07T13:41:22;6.47;;;3.50;;
21110;SDS011;10713;51.912;4.494;2023-09-07T13:43:48;4.93;;;3.55;;
21110;SDS011;10713;51.912;4.494;2023-09-07T13:46:13;4.70;;;3.30;;
21110;SDS011;10713;51.912;4.494;2023-09-07T13:48:38;6.82;;;3.25;;
21110;SDS011;10713;51.912;4.494;2023-09-07T13:51:04;6.07;;;3.88;;
21110;SDS011;10713;51.912;4.494;2023-09-07T13:53:29;5.68;;;3.53;;
21110;SDS011;10713;51.912;4.494;2023-09-07T13:55:54;5.78;;;3.50;;
21110;SDS011;10713;51.912;4.494;2023-09-07T13:58:20;7.03;;;3.53;;
21110;SDS011;10713;51.912;4.494;2023-09-07T14:00:45;5.40;;;3.40;;
21110;SDS011;10713;51.912;4.494;2023-09-07T14:03:11;5.55;;;3.15;;
21110;SDS011;10713;51.912;4.494;2023-09-07T14:05:37;6.43;;;3.25;;
21110;SDS011;10713;51.912;4.494;2023-09-07T14:08:02;7.30;;;3.40;;
21110;SDS011;10713;51.912;4.494;2023-09-07T14:10:28;5.65;;;3.65;;
21110;SDS011;10713;51.912;4.494;2023-09-07T14:12:53;4.97;;;3.40;;
21110;SDS011;10713;51.912;4.494;2023-09-07T14:15:18;5.43;;;3.53;;
21110;SDS011;10713;51.912;4.494;2023-09-07T14:17:44;6.28;;;3.20;;
21110;SDS011;10713;51.912;4.494;2023-09-07T14:20:09;6.95;;;3.70;;
21110;SDS011;10713;51.912;4.494;2023-09-07T14:22:35;12.20;;;3.75;;
21110;SDS011;10713;51.912;4.494;2023-09-07T14:25:00;5.60;;;3.57;;
21110;SDS011;10713;51.912;4.494;2023-09-07T14:27:26;4.80;;;3.20;;
21110;SDS011;10713;51.912;4.494;2023-09-07T14:29:51;6.25;;;3.50;;